createdAt,value
2023-02-18T00:01:25.627Z,3.03
2023-02-18T00:04:27.112Z,2.75
2023-02-18T00:07:28.649Z,1.65
2023-02-18T00:10:30.119Z,1.60
2023-02-18T00:13:31.655Z,2.00
2023-02-18T00:16:33.270Z,3.17
2023-02-18T00:19:34.736Z,1.30
2023-02-18T00:22:36.208Z,2.97
2023-02-18T00:25:37.739Z,2.25
2023-02-18T00:28:39.275Z,1.33
2023-02-18T00:31:41.458Z,1.95
2023-02-18T00:34:43.424Z,1.90
2023-02-18T00:37:44.881Z,2.83
2023-02-18T00:40:47.637Z,1.20
2023-02-18T00:43:49.808Z,1.90
2023-02-18T00:46:54.234Z,1.90
2023-02-18T00:49:55.676Z,2.38
2023-02-18T00:52:57.138Z,2.10
2023-02-18T00:55:59.265Z,1.80
2023-02-18T00:59:00.775Z,2.42
2023-02-18T01:02:02.319Z,1.90
2023-02-18T01:05:04.053Z,1.08
2023-02-18T01:08:07.097Z,2.33
2023-02-18T01:11:10.940Z,1.67
2023-02-18T01:14:12.547Z,1.75
2023-02-18T01:17:14.100Z,1.95
2023-02-18T01:20:17.446Z,2.22
2023-02-18T01:23:19.368Z,1.77
2023-02-18T01:26:22.902Z,2.42
2023-02-18T01:29:24.539Z,1.05
2023-02-18T01:32:26.068Z,1.75
2023-02-18T01:35:27.633Z,2.38
2023-02-18T01:38:29.884Z,1.13
2023-02-18T01:41:31.473Z,1.45
2023-02-18T01:44:34.049Z,1.35
2023-02-18T01:47:35.519Z,1.98
2023-02-18T01:50:40.752Z,2.47
2023-02-18T01:54:07.285Z,2.60
2023-02-18T01:57:22.975Z,1.95
2023-02-18T02:00:24.634Z,1.92
2023-02-18T02:03:27.344Z,1.73
2023-02-18T02:06:29.031Z,1.77
2023-02-18T02:09:31.993Z,1.17
2023-02-18T02:12:39.789Z,1.15
2023-02-18T02:15:45.450Z,1.10
2023-02-18T02:19:02.085Z,1.27
2023-02-18T02:22:03.898Z,1.33
2023-02-18T02:25:33.261Z,1.05
2023-02-18T02:29:02.252Z,1.35
2023-02-18T02:32:32.775Z,0.77
2023-02-18T02:35:45.091Z,1.35
2023-02-18T02:39:00.277Z,1.50
2023-02-18T02:42:29.751Z,1.63
2023-02-18T02:45:56.165Z,2.70
2023-02-18T02:49:16.172Z,2.22
2023-02-18T02:52:29.874Z,1.67
2023-02-18T02:55:31.502Z,1.15
2023-02-18T02:58:33.431Z,1.63
2023-02-18T03:01:57.028Z,1.60
2023-02-18T03:05:28.149Z,1.35
2023-02-18T03:08:55.490Z,1.20
2023-02-18T03:15:23.218Z,1.58
2023-02-18T03:18:49.057Z,1.33
2023-02-18T03:21:53.666Z,1.38
2023-02-18T03:24:57.628Z,1.60
2023-02-18T03:28:07.360Z,1.65
2023-02-18T03:31:13.532Z,1.75
2023-02-18T03:34:25.393Z,1.08
2023-02-18T03:37:29.790Z,1.92
2023-02-18T03:40:31.810Z,1.42
2023-02-18T03:43:35.794Z,1.70
2023-02-18T03:46:39.508Z,1.40
2023-02-18T03:49:41.088Z,1.52
2023-02-18T03:52:42.680Z,1.52
2023-02-18T03:55:44.206Z,1.73
2023-02-18T03:58:46.033Z,1.02
2023-02-18T04:01:47.524Z,1.50
2023-02-18T04:04:49.026Z,3.42
2023-02-18T04:07:50.504Z,1.58
2023-02-18T04:10:52.323Z,1.27
2023-02-18T04:13:53.809Z,2.65
2023-02-18T04:16:55.350Z,1.50
2023-02-18T04:19:56.842Z,2.22
2023-02-18T04:22:58.368Z,0.88
2023-02-18T04:25:59.859Z,3.38
2023-02-18T04:29:01.350Z,2.13
2023-02-18T04:32:03.004Z,1.55
2023-02-18T04:35:05.556Z,2.38
2023-02-18T04:38:07.925Z,1.83
2023-02-18T04:41:10.928Z,2.58
2023-02-18T04:44:12.487Z,2.25
2023-02-18T04:47:14.382Z,2.60
2023-02-18T04:50:16.019Z,1.30
2023-02-18T04:53:17.554Z,2.15
2023-02-18T04:56:19.025Z,1.48
2023-02-18T04:59:20.583Z,1.40
2023-02-18T05:02:22.061Z,1.85
2023-02-18T05:05:23.587Z,2.28
2023-02-18T05:08:25.343Z,1.80
2023-02-18T05:11:26.868Z,1.77
2023-02-18T05:14:28.346Z,2.95
2023-02-18T05:17:29.911Z,2.17
2023-02-18T05:20:31.439Z,1.45
2023-02-18T05:23:33.020Z,1.15
2023-02-18T05:26:34.918Z,4.60
2023-02-18T05:29:36.422Z,1.67
2023-02-18T05:32:37.916Z,1.00
2023-02-18T05:35:39.750Z,1.35
2023-02-18T05:38:41.284Z,1.35
2023-02-18T05:41:42.768Z,2.78
2023-02-18T05:44:44.319Z,1.67
2023-02-18T05:47:45.799Z,1.73
2023-02-18T05:50:53.806Z,1.83
2023-02-18T05:53:55.660Z,1.65
2023-02-18T05:56:57.216Z,1.45
2023-02-18T06:00:00.148Z,2.25
2023-02-18T06:03:01.838Z,2.03
2023-02-18T06:06:03.627Z,1.67
2023-02-18T06:09:05.813Z,2.10
2023-02-18T06:12:07.453Z,0.82
2023-02-18T06:15:09.181Z,2.25
2023-02-18T06:18:10.668Z,1.38
2023-02-18T06:21:12.147Z,1.88
2023-02-18T06:24:13.676Z,1.48
2023-02-18T06:27:15.237Z,2.35
2023-02-18T06:30:16.867Z,1.00
2023-02-18T06:33:18.399Z,2.08
2023-02-18T06:36:19.941Z,1.13
2023-02-18T06:39:21.468Z,2.17
2023-02-18T06:42:22.954Z,3.28
2023-02-18T06:45:24.486Z,2.78
2023-02-18T06:48:26.047Z,2.92
2023-02-18T06:51:27.554Z,3.13
2023-02-18T06:54:29.116Z,2.45
2023-02-18T06:57:30.681Z,1.13
2023-02-18T07:00:32.286Z,1.95
2023-02-18T07:03:34.159Z,2.35
2023-02-18T07:06:35.679Z,2.65
2023-02-18T07:09:37.159Z,1.42
2023-02-18T07:12:38.673Z,2.80
2023-02-18T07:15:40.145Z,1.80
2023-02-18T07:18:41.651Z,1.48
2023-02-18T07:21:43.442Z,2.05
2023-02-18T07:24:44.948Z,2.15
2023-02-18T07:27:46.461Z,1.85
2023-02-18T07:30:47.950Z,2.45
2023-02-18T07:33:49.436Z,1.38
2023-02-18T07:36:50.988Z,1.80
2023-02-18T07:39:52.559Z,4.18
2023-02-18T07:42:54.052Z,2.60
2023-02-18T07:45:55.727Z,2.17
2023-02-18T07:48:58.331Z,1.35
2023-02-18T07:52:00.008Z,1.45
2023-02-18T07:55:01.595Z,1.52
2023-02-18T07:58:03.258Z,1.70
2023-02-18T08:01:07.267Z,1.10
2023-02-18T08:04:08.919Z,1.13
2023-02-18T08:07:14.772Z,1.55
2023-02-18T08:10:16.308Z,1.73
2023-02-18T08:13:17.943Z,3.25
2023-02-18T08:16:21.103Z,1.00
2023-02-18T08:19:22.568Z,2.15
2023-02-18T08:22:24.022Z,3.70
2023-02-18T08:25:29.825Z,2.78
2023-02-18T08:28:31.539Z,1.38
2023-02-18T08:31:33.298Z,2.05
2023-02-18T08:34:34.848Z,1.27
2023-02-18T08:37:53.289Z,2.28
2023-02-18T08:41:04.315Z,1.38
2023-02-18T08:44:05.833Z,1.33
2023-02-18T08:48:13.762Z,0.82
2023-02-18T08:50:28.898Z,1.45
2023-02-18T08:53:30.425Z,0.82
2023-02-18T08:56:32.634Z,1.40
2023-02-18T08:59:34.157Z,1.63
2023-02-18T09:02:35.672Z,1.42
2023-02-18T09:05:39.477Z,3.42
2023-02-18T09:08:40.985Z,1.65
2023-02-18T09:11:43.137Z,4.18
2023-02-18T09:14:47.899Z,2.75
2023-02-18T09:17:49.387Z,0.68
2023-02-18T09:20:50.917Z,1.45
2023-02-18T09:23:52.835Z,2.65
2023-02-18T09:26:55.464Z,1.73
2023-02-18T09:29:57.065Z,1.65
2023-02-18T09:32:58.576Z,1.77
2023-02-18T09:36:01.556Z,1.50
2023-02-18T09:39:03.197Z,1.65
2023-02-18T09:42:11.306Z,1.15
2023-02-18T09:45:13.812Z,2.70
2023-02-18T09:48:15.301Z,0.73
2023-02-18T09:51:17.790Z,0.68
2023-02-18T09:54:20.465Z,2.63
2023-02-18T09:57:43.186Z,0.60
2023-02-18T10:00:50.880Z,1.10
2023-02-18T10:03:55.507Z,0.73
2023-02-18T10:06:58.308Z,1.27
2023-02-18T10:10:15.634Z,1.27
2023-02-18T10:13:20.337Z,2.15
2023-02-18T10:16:24.570Z,1.05
2023-02-18T10:19:32.303Z,1.48
2023-02-18T10:22:33.795Z,0.75
2023-02-18T10:25:42.196Z,2.53
2023-02-18T10:28:44.473Z,1.02
2023-02-18T10:31:51.762Z,2.00
2023-02-18T10:35:18.347Z,0.88
2023-02-18T10:38:42.547Z,1.52
2023-02-18T10:41:43.956Z,0.50
2023-02-18T10:45:09.056Z,1.63
2023-02-18T10:48:22.644Z,1.85
2023-02-18T10:51:33.113Z,0.60
2023-02-18T10:54:52.851Z,3.30
2023-02-18T10:57:55.232Z,1.40
2023-02-18T11:00:57.544Z,1.02
2023-02-18T11:04:15.967Z,1.20
2023-02-18T11:07:27.238Z,1.15
2023-02-18T11:10:38.906Z,0.77
2023-02-18T11:13:41.159Z,0.70
2023-02-18T11:16:45.404Z,2.15
2023-02-18T11:20:18.784Z,2.60
2023-02-18T11:23:21.698Z,1.52
2023-02-18T11:26:34.900Z,0.80
2023-02-18T11:29:36.987Z,1.90
2023-02-18T11:32:38.523Z,2.25
2023-02-18T11:35:40.031Z,2.10
2023-02-18T11:38:46.861Z,1.80
2023-02-18T11:42:07.437Z,2.67
2023-02-18T11:45:27.502Z,2.83
2023-02-18T11:48:29.127Z,0.70
2023-02-18T11:51:36.609Z,0.90
2023-02-18T11:54:38.261Z,1.23
2023-02-18T11:57:43.740Z,2.40
2023-02-18T12:00:48.905Z,2.30
2023-02-18T12:03:56.809Z,2.17
2023-02-18T12:07:40.626Z,1.23
2023-02-18T12:10:51.711Z,1.38
2023-02-18T12:13:58.406Z,3.72
2023-02-18T12:17:09.101Z,3.10
2023-02-18T12:20:32.417Z,2.33
2023-02-18T12:23:56.005Z,3.67
2023-02-18T12:27:03.275Z,5.88
2023-02-18T12:30:10.952Z,0.80
2023-02-18T12:33:24.466Z,1.83
2023-02-18T12:36:47.756Z,4.72
2023-02-18T12:40:26.515Z,5.25
2023-02-18T12:43:33.977Z,3.63
2023-02-18T12:47:08.720Z,6.22
2023-02-18T12:50:35.011Z,3.25
2023-02-18T12:53:42.998Z,3.60
2023-02-18T12:57:23.330Z,3.60
2023-02-18T13:00:33.913Z,1.55
2023-02-18T13:03:46.968Z,5.90
2023-02-18T13:07:00.648Z,3.40
2023-02-18T13:10:38.918Z,2.28
2023-02-18T13:13:55.192Z,3.20
2023-02-18T13:17:00.006Z,0.98
2023-02-18T13:20:07.546Z,4.43
2023-02-18T13:23:22.755Z,5.35
2023-02-18T13:26:25.108Z,2.63
2023-02-18T13:29:34.454Z,5.07
2023-02-18T13:32:51.146Z,4.38
2023-02-18T13:36:04.407Z,4.15
2023-02-18T13:39:21.118Z,2.47
2023-02-18T13:42:31.035Z,1.35
2023-02-18T13:45:33.133Z,5.57
2023-02-18T13:48:42.735Z,2.88
2023-02-18T13:51:54.091Z,3.28
2023-02-18T13:54:55.907Z,1.33
2023-02-18T13:57:59.829Z,2.10
2023-02-18T14:01:17.519Z,2.45
2023-02-18T14:04:37.474Z,4.60
2023-02-18T14:07:46.884Z,2.03
2023-02-18T14:11:13.519Z,3.78
2023-02-18T14:14:33.106Z,1.95
2023-02-18T14:17:40.865Z,4.03
2023-02-18T14:20:51.874Z,2.13
2023-02-18T14:23:57.416Z,5.05
2023-02-18T14:27:14.483Z,2.50
2023-02-18T14:30:33.604Z,2.60
2023-02-18T14:33:36.592Z,4.75
2023-02-18T14:37:19.383Z,3.00
2023-02-18T14:40:51.952Z,2.17
2023-02-18T14:43:59.235Z,2.70
2023-02-18T14:47:15.952Z,3.17
2023-02-18T14:50:19.864Z,3.17
2023-02-18T14:53:24.984Z,1.83
2023-02-18T14:56:26.605Z,1.42
2023-02-18T14:59:34.168Z,1.77
2023-02-18T15:02:38.534Z,3.10
2023-02-18T15:05:40.532Z,3.08
2023-02-18T15:08:42.030Z,2.25
2023-02-18T15:12:06.240Z,4.80
2023-02-18T15:15:13.598Z,2.30
2023-02-18T15:18:31.786Z,2.10
2023-02-18T15:21:39.171Z,3.97
2023-02-18T15:24:40.810Z,3.20
2023-02-18T15:27:46.916Z,3.17
2023-02-18T15:30:49.269Z,3.08
2023-02-18T15:33:50.725Z,2.50
2023-02-18T15:36:53.485Z,1.98
2023-02-18T15:39:55.150Z,3.67
2023-02-18T15:42:59.136Z,3.95
2023-02-18T15:46:14.283Z,8.02
2023-02-18T15:49:19.900Z,2.42
2023-02-18T15:52:31.000Z,1.70
2023-02-18T15:55:38.487Z,3.35
2023-02-18T15:58:40.028Z,2.53
2023-02-18T16:01:41.548Z,2.28
2023-02-18T16:04:48.703Z,7.80
2023-02-18T16:07:59.535Z,3.00
2023-02-18T16:11:05.507Z,4.05
2023-02-18T16:14:07.479Z,3.22
2023-02-18T16:17:11.766Z,2.97
2023-02-18T16:20:27.405Z,4.82
2023-02-18T16:23:58.002Z,3.33
2023-02-18T16:27:01.378Z,3.97
2023-02-18T16:30:15.892Z,5.82
2023-02-18T16:33:17.434Z,6.68
2023-02-18T16:36:19.315Z,2.58
2023-02-18T16:39:21.035Z,4.75
2023-02-18T16:42:22.638Z,6.45
2023-02-18T16:45:32.573Z,5.28
2023-02-18T16:48:37.363Z,5.28
2023-02-18T16:51:40.308Z,6.95
2023-02-18T16:54:43.591Z,3.17
2023-02-18T16:57:47.459Z,5.60
2023-02-18T17:00:52.286Z,4.47
2023-02-18T17:03:54.503Z,3.53
2023-02-18T17:06:56.002Z,5.35
2023-02-18T17:09:57.544Z,3.15
2023-02-18T17:12:59.067Z,5.57
2023-02-18T17:16:00.549Z,4.97
2023-02-18T17:19:02.055Z,5.88
2023-02-18T17:22:03.531Z,5.65
2023-02-18T17:25:11.986Z,4.82
2023-02-18T17:28:15.106Z,7.72
2023-02-18T17:31:26.453Z,7.18
2023-02-18T17:34:31.072Z,6.93
2023-02-18T17:37:32.883Z,8.30
2023-02-18T17:40:34.462Z,8.40
2023-02-18T17:43:36.982Z,7.03
2023-02-18T17:46:38.481Z,6.43
2023-02-18T17:49:40.087Z,11.10
2023-02-18T17:52:42.237Z,7.50
2023-02-18T17:55:45.930Z,7.78
2023-02-18T17:58:48.672Z,10.05
2023-02-18T18:01:50.162Z,7.53
2023-02-18T18:04:51.590Z,8.45
2023-02-18T18:07:53.922Z,7.82
2023-02-18T18:10:59.366Z,7.70
2023-02-18T18:14:00.909Z,6.47
2023-02-18T18:17:02.739Z,7.07
2023-02-18T18:20:04.767Z,8.20
2023-02-18T18:23:07.590Z,7.15
2023-02-18T18:26:09.579Z,5.90
2023-02-18T18:29:11.053Z,5.75
2023-02-18T18:32:12.761Z,7.70
2023-02-18T18:35:26.356Z,6.75
2023-02-18T18:38:29.102Z,8.13
2023-02-18T18:41:30.598Z,6.47
2023-02-18T18:44:32.090Z,7.43
2023-02-18T18:47:33.623Z,7.03
2023-02-18T18:50:37.555Z,9.38
2023-02-18T18:53:39.068Z,5.07
2023-02-18T18:56:40.578Z,6.90
2023-02-18T18:59:42.205Z,5.28
2023-02-18T19:02:44.376Z,5.07
2023-02-18T19:05:47.207Z,5.82
2023-02-18T19:08:48.721Z,4.22
2023-02-18T19:11:50.193Z,4.30
2023-02-18T19:14:51.680Z,3.70
2023-02-18T19:17:54.196Z,4.97
2023-02-18T19:20:56.534Z,4.35
2023-02-18T19:23:59.713Z,4.10
2023-02-18T19:27:01.236Z,3.90
2023-02-18T19:30:03.934Z,3.67
2023-02-18T19:33:06.257Z,3.60
2023-02-18T19:36:10.191Z,5.03
2023-02-18T19:39:11.634Z,3.30
2023-02-18T19:42:13.335Z,3.85
2023-02-18T19:45:15.534Z,5.88
2023-02-18T19:48:17.068Z,2.90
2023-02-18T19:51:20.547Z,5.18
2023-02-18T19:54:22.262Z,3.10
2023-02-18T19:57:24.140Z,4.40
2023-02-18T20:00:25.660Z,5.07
2023-02-18T20:03:27.144Z,4.40
2023-02-18T20:06:28.891Z,4.03
2023-02-18T20:09:30.363Z,5.13
2023-02-18T20:12:32.042Z,3.75
2023-02-18T20:15:33.496Z,5.32
2023-02-18T20:18:35.992Z,3.45
2023-02-18T20:21:37.536Z,4.45
2023-02-18T20:24:39.962Z,3.72
2023-02-18T20:27:58.260Z,4.18
2023-02-18T20:31:11.575Z,5.28
2023-02-18T20:34:13.586Z,4.00
2023-02-18T20:37:15.142Z,4.93
2023-02-18T20:40:17.674Z,3.58
2023-02-18T20:43:19.139Z,3.78
2023-02-18T20:46:24.571Z,3.10
2023-02-18T20:49:26.074Z,2.78
2023-02-18T20:52:27.579Z,3.95
2023-02-18T20:55:29.115Z,3.42
2023-02-18T20:58:31.287Z,3.13
2023-02-18T21:01:33.083Z,3.92
2023-02-18T21:04:34.639Z,4.40
2023-02-18T21:07:36.172Z,3.05
2023-02-18T21:10:39.900Z,4.60
2023-02-18T21:13:41.793Z,3.47
2023-02-18T21:16:43.362Z,2.75
2023-02-18T21:19:44.906Z,3.28
2023-02-18T21:22:46.370Z,3.13
2023-02-18T21:25:48.234Z,2.72
2023-02-18T21:28:55.625Z,3.38
2023-02-18T21:31:57.281Z,2.72
2023-02-18T21:34:58.779Z,3.33
2023-02-18T21:38:00.256Z,3.80
2023-02-18T21:41:04.582Z,3.28
2023-02-18T21:44:06.128Z,4.10
2023-02-18T21:47:07.656Z,2.30
2023-02-18T21:50:09.914Z,3.03
2023-02-18T21:53:11.530Z,2.45
2023-02-18T21:56:13.021Z,2.67
2023-02-18T21:59:15.175Z,2.65
2023-02-18T22:02:22.571Z,2.58
2023-02-18T22:05:25.993Z,2.60
2023-02-18T22:08:27.493Z,2.22
2023-02-18T22:11:30.232Z,2.38
2023-02-18T22:14:31.770Z,2.00
2023-02-18T22:17:33.382Z,2.33
2023-02-18T22:20:34.824Z,2.13
2023-02-18T22:23:36.465Z,1.50
2023-02-18T22:26:37.978Z,2.50
2023-02-18T22:29:39.575Z,4.13
2023-02-18T22:32:41.061Z,2.53
2023-02-18T22:35:42.544Z,3.67
2023-02-18T22:38:44.054Z,1.73
2023-02-18T22:41:45.523Z,3.03
2023-02-18T22:44:47.050Z,2.88
2023-02-18T22:47:48.548Z,3.00
2023-02-18T22:50:50.004Z,2.88
2023-02-18T22:53:53.605Z,2.65
2023-02-18T22:56:55.126Z,2.88
2023-02-18T22:59:57.440Z,2.28
2023-02-18T23:02:58.944Z,1.95
2023-02-18T23:06:06.200Z,2.85
2023-02-18T23:09:09.136Z,2.63
2023-02-18T23:12:10.632Z,3.30
2023-02-18T23:15:14.093Z,2.42
2023-02-18T23:18:15.723Z,2.75
2023-02-18T23:21:17.257Z,1.90
2023-02-18T23:24:18.976Z,1.95
2023-02-18T23:27:21.377Z,2.47
2023-02-18T23:30:22.985Z,1.45
2023-02-18T23:33:24.536Z,2.72
2023-02-18T23:36:28.752Z,2.92
2023-02-18T23:39:30.383Z,2.28
2023-02-18T23:42:31.861Z,2.33
2023-02-18T23:45:33.356Z,2.78
2023-02-18T23:48:38.264Z,3.47
2023-02-18T23:51:39.914Z,2.85
2023-02-18T23:54:41.392Z,3.70
2023-02-18T23:57:42.876Z,3.25
